TAF and METAR

Could not understand the following METAR

YPPD 141500Z AUTO 26013KT 9999 // NCD 30/18 Q1003

TAF for Port Hedland International Airport

TAF YPPD 141108Z 1412/1512 30014KT CAVOK FM141500 25010KT CAVOK FM150200 29016KT CAVOK
Report created 14. des 12:08

between 14. des 13:00 - 15. des 13:00

wind 14 knots from WNW (300°) Clear sky

From 14. des 16:00

wind 10 knots from WSW (250°) Clear sky

From 15. des 03:00

wind 16 knots from WNW (290°) Clear sky
Port Hedland International Airport in Australia at 6m

Latest 5 airports